createdAt,value
2024-02-29T00:01:00.397Z,9.60
2024-02-29T00:03:53.141Z,10.40
2024-02-29T00:06:32.061Z,10.88
2024-02-29T00:09:10.743Z,10.77
2024-02-29T00:11:46.684Z,10.20
2024-02-29T00:14:23.717Z,11.57
2024-02-29T00:17:05.905Z,10.18
2024-02-29T00:19:54.800Z,10.90
2024-02-29T00:22:31.163Z,10.80
2024-02-29T00:25:10.447Z,11.98
2024-02-29T00:27:45.480Z,10.75
2024-02-29T00:30:21.449Z,10.02
2024-02-29T00:32:59.482Z,9.57
2024-02-29T00:35:48.816Z,9.75
2024-02-29T00:38:27.944Z,10.57
2024-02-29T00:41:05.007Z,9.75
2024-02-29T00:43:48.199Z,10.52
2024-02-29T00:46:19.997Z,9.23
2024-02-29T00:49:02.901Z,10.32
2024-02-29T00:51:44.918Z,9.48
2024-02-29T00:54:33.215Z,10.70
2024-02-29T00:57:23.892Z,10.85
2024-02-29T01:00:08.005Z,9.88
2024-02-29T01:02:49.246Z,9.93
2024-02-29T01:05:28.759Z,9.35
2024-02-29T01:08:14.996Z,9.80
2024-02-29T01:10:55.497Z,10.48
2024-02-29T01:13:33.535Z,10.70
2024-02-29T01:16:21.251Z,10.25
2024-02-29T01:19:02.260Z,10.38
2024-02-29T01:21:43.893Z,11.13
2024-02-29T01:24:22.937Z,10.25
2024-02-29T01:27:01.629Z,10.55
2024-02-29T01:29:44.749Z,10.38
2024-02-29T01:32:27.022Z,9.90
2024-02-29T01:35:14.991Z,9.70
2024-02-29T01:37:55.841Z,10.10
2024-02-29T01:40:35.518Z,11.77
2024-02-29T01:43:16.373Z,10.85
2024-02-29T01:45:57.523Z,11.32
2024-02-29T01:51:10.449Z,12.02
2024-02-29T01:53:45.665Z,11.57
2024-02-29T01:56:30.537Z,12.35
2024-02-29T01:59:16.629Z,12.43
2024-02-29T02:01:53.475Z,13.57
2024-02-29T02:04:34.108Z,12.32
2024-02-29T02:07:12.810Z,12.73
2024-02-29T02:09:48.477Z,12.32
2024-02-29T02:12:38.914Z,13.13
2024-02-29T02:15:17.153Z,13.73
2024-02-29T02:17:53.988Z,13.65
2024-02-29T02:20:40.870Z,13.57
2024-02-29T02:23:27.106Z,13.23
2024-02-29T02:26:03.980Z,12.68
2024-02-29T02:28:37.414Z,14.15
2024-02-29T02:31:26.089Z,13.70
2024-02-29T02:34:03.335Z,14.30
2024-02-29T02:36:56.687Z,14.25
2024-02-29T02:39:37.942Z,14.30
2024-02-29T02:44:52.760Z,14.40
2024-02-29T02:47:28.362Z,15.27
2024-02-29T02:50:07.167Z,14.27
2024-02-29T02:52:44.415Z,13.57
2024-02-29T02:55:22.740Z,16.13
2024-02-29T02:58:04.568Z,15.52
2024-02-29T03:00:42.896Z,15.30
2024-02-29T03:03:22.356Z,16.98
2024-02-29T03:06:01.900Z,14.60
2024-02-29T03:08:52.077Z,16.20
2024-02-29T03:11:32.336Z,15.65
2024-02-29T03:14:10.818Z,16.20
2024-02-29T03:16:50.080Z,15.10
2024-02-29T03:19:28.687Z,15.57
2024-02-29T03:22:06.390Z,15.40
2024-02-29T03:24:51.229Z,16.15
2024-02-29T03:27:43.065Z,15.75
2024-02-29T03:30:20.529Z,15.10
2024-02-29T03:32:59.755Z,15.55
2024-02-29T03:35:37.350Z,15.43
2024-02-29T03:38:19.156Z,14.80
2024-02-29T03:41:07.433Z,15.23
2024-02-29T03:43:41.063Z,16.95
2024-02-29T03:46:20.169Z,15.13
2024-02-29T03:48:54.248Z,15.32
2024-02-29T03:51:35.203Z,15.77
2024-02-29T03:54:13.400Z,16.50
2024-02-29T03:56:55.557Z,14.80
2024-02-29T03:59:36.934Z,14.38
2024-02-29T04:02:10.784Z,14.20
2024-02-29T04:04:48.421Z,13.95
2024-02-29T04:07:27.459Z,14.73
2024-02-29T04:10:04.817Z,14.77
2024-02-29T04:12:59.050Z,14.40
2024-02-29T04:15:34.441Z,14.57
2024-02-29T04:18:24.688Z,16.15
2024-02-29T04:21:07.414Z,15.00
2024-02-29T04:23:48.045Z,14.60
2024-02-29T04:26:28.238Z,15.57
2024-02-29T04:29:09.229Z,15.47
2024-02-29T04:31:57.878Z,16.38
2024-02-29T04:34:35.041Z,14.75
2024-02-29T04:37:15.810Z,15.82
2024-02-29T04:39:57.472Z,14.23
2024-02-29T04:42:38.361Z,14.60
2024-02-29T04:45:20.943Z,15.68
2024-02-29T04:47:52.880Z,19.00
2024-02-29T04:50:43.892Z,17.98
2024-02-29T04:53:16.133Z,17.02
2024-02-29T04:56:04.243Z,17.08
2024-02-29T04:58:38.608Z,15.25
2024-02-29T05:01:29.501Z,18.27
2024-02-29T05:04:11.503Z,18.10
2024-02-29T05:06:48.618Z,16.17
2024-02-29T05:09:21.613Z,16.42
2024-02-29T05:11:57.752Z,17.63
2024-02-29T05:14:32.666Z,15.38
2024-02-29T05:17:17.140Z,16.00
2024-02-29T05:19:50.737Z,17.27
2024-02-29T05:22:32.889Z,15.30
2024-02-29T05:25:17.098Z,15.23
2024-02-29T05:27:56.900Z,14.50
2024-02-29T05:30:38.424Z,16.27
2024-02-29T05:33:39.900Z,15.30
2024-02-29T05:36:19.567Z,14.75
2024-02-29T05:38:58.410Z,16.58
2024-02-29T05:41:39.412Z,16.13
2024-02-29T05:44:11.834Z,14.93
2024-02-29T05:46:46.649Z,15.75
2024-02-29T05:49:29.833Z,16.00
2024-02-29T05:52:10.821Z,15.48
2024-02-29T05:54:51.118Z,15.55
2024-02-29T05:57:39.337Z,15.43
2024-02-29T06:00:21.659Z,16.08
2024-02-29T06:03:00.670Z,15.60
2024-02-29T06:05:46.537Z,16.70
2024-02-29T06:08:38.978Z,15.05
2024-02-29T06:11:29.863Z,16.00
2024-02-29T06:14:10.354Z,15.88
2024-02-29T06:16:48.236Z,16.35
2024-02-29T06:19:31.595Z,17.90
2024-02-29T06:22:15.728Z,17.08
2024-02-29T06:24:55.747Z,16.85
2024-02-29T06:27:43.324Z,16.58
2024-02-29T06:30:38.584Z,16.33
2024-02-29T06:33:23.375Z,16.08
2024-02-29T06:36:09.883Z,15.98
2024-02-29T06:38:56.753Z,15.40
2024-02-29T06:41:57.389Z,15.82
2024-02-29T06:44:37.853Z,15.40
2024-02-29T06:47:22.484Z,16.10
2024-02-29T06:50:10.357Z,15.45
2024-02-29T06:52:44.333Z,15.88
2024-02-29T06:55:22.332Z,15.57
2024-02-29T06:58:16.521Z,15.82
2024-02-29T07:00:56.877Z,15.85
2024-02-29T07:03:32.839Z,14.48
2024-02-29T07:06:22.948Z,15.50
2024-02-29T07:09:03.501Z,14.73
2024-02-29T07:11:58.898Z,16.92
2024-02-29T07:14:38.437Z,16.05
2024-02-29T07:17:18.923Z,14.90
2024-02-29T07:19:59.482Z,15.60
2024-02-29T07:22:41.652Z,15.70
2024-02-29T07:28:18.896Z,14.77
2024-02-29T07:31:01.630Z,15.13
2024-02-29T07:33:47.129Z,14.40
2024-02-29T07:36:26.449Z,15.30
2024-02-29T07:39:04.766Z,16.05
2024-02-29T07:41:45.418Z,15.13
2024-02-29T07:44:32.322Z,14.82
2024-02-29T07:47:11.318Z,14.70
2024-02-29T07:49:56.206Z,14.63
2024-02-29T07:52:37.260Z,15.00
2024-02-29T07:55:14.186Z,14.60
2024-02-29T07:57:55.870Z,13.38
2024-02-29T08:00:39.955Z,15.73
2024-02-29T08:03:18.457Z,15.77
2024-02-29T08:06:08.192Z,16.73
2024-02-29T08:08:43.801Z,15.85
2024-02-29T08:11:32.016Z,15.60
2024-02-29T08:14:06.386Z,15.02
2024-02-29T08:16:51.947Z,15.18
2024-02-29T08:19:25.137Z,16.20
2024-02-29T08:22:03.046Z,15.07
2024-02-29T08:27:40.101Z,15.25
2024-02-29T08:30:21.516Z,15.93
2024-02-29T08:33:01.163Z,15.05
2024-02-29T08:35:38.399Z,14.90
2024-02-29T08:38:24.809Z,15.50
2024-02-29T08:41:17.899Z,14.93
2024-02-29T08:44:09.566Z,15.00
2024-02-29T08:47:06.833Z,14.35
2024-02-29T08:49:54.609Z,15.13
2024-02-29T08:52:41.562Z,14.88
2024-02-29T08:55:30.648Z,15.02
2024-02-29T08:58:14.089Z,14.82
2024-02-29T09:00:51.893Z,14.25
2024-02-29T09:03:33.305Z,14.95
2024-02-29T09:06:21.247Z,15.48
2024-02-29T09:09:03.500Z,14.52
2024-02-29T09:11:40.102Z,15.63
2024-02-29T09:14:16.581Z,14.40
2024-02-29T09:16:54.386Z,15.15
2024-02-29T09:19:30.666Z,15.43
2024-02-29T09:22:21.562Z,14.98
2024-02-29T09:24:59.732Z,14.20
2024-02-29T09:27:50.188Z,14.90
2024-02-29T09:30:33.001Z,14.43
2024-02-29T09:33:12.611Z,14.73
2024-02-29T09:35:59.465Z,14.07
2024-02-29T09:38:40.038Z,12.68
2024-02-29T09:41:25.444Z,14.18
2024-02-29T09:44:09.900Z,13.60
2024-02-29T09:46:54.955Z,14.05
2024-02-29T09:49:35.988Z,15.25
2024-02-29T09:52:14.754Z,14.98
2024-02-29T09:54:59.223Z,14.35
2024-02-29T09:57:45.578Z,14.00
2024-02-29T10:00:28.924Z,14.57
2024-02-29T10:03:03.049Z,14.32
2024-02-29T10:05:38.274Z,13.55
2024-02-29T10:08:19.265Z,13.35
2024-02-29T10:11:12.763Z,15.05
2024-02-29T10:13:48.738Z,13.35
2024-02-29T10:16:29.225Z,14.05
2024-02-29T10:19:07.717Z,15.05
2024-02-29T10:21:47.889Z,14.18
2024-02-29T10:24:36.097Z,14.60
2024-02-29T10:27:15.117Z,14.00
2024-02-29T10:29:50.945Z,14.30
2024-02-29T10:32:28.870Z,16.13
2024-02-29T10:35:05.185Z,15.10
2024-02-29T10:37:45.287Z,15.32
2024-02-29T10:40:24.861Z,14.32
2024-02-29T10:43:21.081Z,15.05
2024-02-29T10:46:03.877Z,14.88
2024-02-29T10:49:01.987Z,15.55
2024-02-29T10:51:47.534Z,15.90
2024-02-29T10:54:29.853Z,16.35
2024-02-29T10:57:22.302Z,15.48
2024-02-29T11:00:22.752Z,15.35
2024-02-29T11:03:02.023Z,15.17
2024-02-29T11:05:42.079Z,14.70
2024-02-29T11:08:23.990Z,14.52
2024-02-29T11:11:07.818Z,14.85
2024-02-29T11:13:46.218Z,14.95
2024-02-29T11:16:35.924Z,14.45
2024-02-29T11:19:24.064Z,14.98
2024-02-29T11:22:00.739Z,15.35
2024-02-29T11:24:54.940Z,15.73
2024-02-29T11:27:53.640Z,16.02
2024-02-29T11:30:35.137Z,15.27
2024-02-29T11:33:19.351Z,15.20
2024-02-29T11:36:01.487Z,15.10
2024-02-29T11:38:43.233Z,14.10
2024-02-29T11:41:34.982Z,16.25
2024-02-29T11:44:12.492Z,14.90
2024-02-29T11:46:56.745Z,15.27
2024-02-29T11:49:43.052Z,15.75
2024-02-29T11:52:18.281Z,16.40
2024-02-29T11:54:55.757Z,16.83
2024-02-29T11:57:28.002Z,16.42
2024-02-29T12:00:01.818Z,17.23
2024-02-29T12:03:05.517Z,17.30
2024-02-29T12:05:48.490Z,17.25
2024-02-29T12:08:32.344Z,16.60
2024-02-29T12:11:20.004Z,15.77
2024-02-29T12:14:00.253Z,17.90
2024-02-29T12:16:33.832Z,15.37
2024-02-29T12:19:16.918Z,16.00
2024-02-29T12:22:04.782Z,15.40
2024-02-29T12:24:49.016Z,15.52
2024-02-29T12:27:28.770Z,15.00
2024-02-29T12:30:13.065Z,17.33
2024-02-29T12:32:53.276Z,16.55
2024-02-29T12:35:32.264Z,16.17
2024-02-29T12:38:28.547Z,16.20
2024-02-29T12:41:10.391Z,17.42
2024-02-29T12:43:58.974Z,15.93
2024-02-29T12:46:37.685Z,15.55
2024-02-29T12:49:15.094Z,18.00
2024-02-29T12:52:00.070Z,16.85
2024-02-29T12:54:45.246Z,16.90
2024-02-29T12:57:30.862Z,18.05
2024-02-29T13:00:08.947Z,16.90
2024-02-29T13:02:45.438Z,16.15
2024-02-29T13:05:26.177Z,16.40
2024-02-29T13:08:00.697Z,17.08
2024-02-29T13:10:54.780Z,15.20
2024-02-29T13:13:38.416Z,16.13
2024-02-29T13:16:15.184Z,15.93
2024-02-29T13:19:13.668Z,16.02
2024-02-29T13:21:52.237Z,16.95
2024-02-29T13:24:33.288Z,15.55
2024-02-29T13:30:00.318Z,14.55
2024-02-29T13:32:43.785Z,14.75
2024-02-29T13:35:23.861Z,15.25
2024-02-29T13:38:03.574Z,16.10
2024-02-29T13:40:39.301Z,14.00
2024-02-29T13:43:26.333Z,14.70
2024-02-29T13:46:09.759Z,14.00
2024-02-29T13:48:47.425Z,14.15
2024-02-29T13:51:27.496Z,15.20
2024-02-29T13:54:12.051Z,14.95
2024-02-29T13:56:57.464Z,14.55
2024-02-29T13:59:47.041Z,14.02
2024-02-29T14:02:27.610Z,14.00
2024-02-29T14:05:11.401Z,13.18
2024-02-29T14:07:52.626Z,13.98
2024-02-29T14:10:34.552Z,13.80
2024-02-29T14:13:15.791Z,13.40
2024-02-29T14:16:08.107Z,14.20
2024-02-29T14:18:47.229Z,14.95
2024-02-29T14:21:31.660Z,14.65
2024-02-29T14:24:09.543Z,13.07
2024-02-29T14:26:42.829Z,13.88
2024-02-29T14:29:20.982Z,14.50
2024-02-29T14:31:58.729Z,12.55
2024-02-29T14:34:32.726Z,14.15
2024-02-29T14:37:22.117Z,14.48
2024-02-29T14:40:21.321Z,15.00
2024-02-29T14:42:54.843Z,14.18
2024-02-29T14:45:32.969Z,13.07
2024-02-29T14:48:18.740Z,13.27
2024-02-29T14:51:03.706Z,13.77
2024-02-29T14:53:53.022Z,14.60
2024-02-29T14:56:36.561Z,14.00
2024-02-29T14:59:14.014Z,13.18
2024-02-29T15:02:09.579Z,12.23
2024-02-29T15:04:50.891Z,13.18
2024-02-29T15:07:36.308Z,13.30
2024-02-29T15:10:19.232Z,13.25
2024-02-29T15:12:58.009Z,13.10
2024-02-29T15:15:51.265Z,12.13
2024-02-29T15:18:26.566Z,12.23
2024-02-29T15:21:20.740Z,12.30
2024-02-29T15:24:11.389Z,11.07
2024-02-29T15:26:51.465Z,11.63
2024-02-29T15:29:35.142Z,11.00
2024-02-29T15:32:22.686Z,12.02
2024-02-29T15:35:04.165Z,12.10
2024-02-29T15:37:46.461Z,12.13
2024-02-29T15:40:22.106Z,11.98
2024-02-29T15:43:12.656Z,11.02
2024-02-29T15:45:51.989Z,12.27
2024-02-29T15:48:33.186Z,12.68
2024-02-29T15:51:18.343Z,11.90
2024-02-29T15:54:04.042Z,12.27
2024-02-29T15:56:44.146Z,12.90
2024-02-29T15:59:30.037Z,12.23
2024-02-29T16:02:11.048Z,12.15
2024-02-29T16:07:31.571Z,11.45
2024-02-29T16:10:16.808Z,11.90
2024-02-29T16:12:56.942Z,11.82
2024-02-29T16:15:38.063Z,12.57
2024-02-29T16:18:16.855Z,11.80
2024-02-29T16:21:05.222Z,12.10
2024-02-29T16:23:52.649Z,13.57
2024-02-29T16:26:36.100Z,13.50
2024-02-29T16:29:27.912Z,12.65
2024-02-29T16:32:12.393Z,12.88
2024-02-29T16:35:03.126Z,13.50
2024-02-29T16:37:48.629Z,13.10
2024-02-29T16:40:37.679Z,13.98
2024-02-29T16:43:25.295Z,12.52
2024-02-29T16:46:04.054Z,12.73
2024-02-29T16:48:42.862Z,12.15
2024-02-29T16:51:26.008Z,10.65
2024-02-29T16:54:14.212Z,11.82
2024-02-29T16:56:52.749Z,11.27
2024-02-29T16:59:45.601Z,11.52
2024-02-29T17:02:28.887Z,11.35
2024-02-29T17:05:07.129Z,12.02
2024-02-29T17:07:47.231Z,12.38
2024-02-29T17:10:36.432Z,13.02
2024-02-29T17:13:24.670Z,13.80
2024-02-29T17:16:05.324Z,12.57
2024-02-29T17:18:41.591Z,12.68
2024-02-29T17:21:21.653Z,12.57
2024-02-29T17:24:01.722Z,13.13
2024-02-29T17:26:47.381Z,12.65
2024-02-29T17:29:28.393Z,13.05
2024-02-29T17:32:18.545Z,13.55
2024-02-29T17:34:58.037Z,13.50
2024-02-29T17:37:38.112Z,13.60
2024-02-29T17:40:25.244Z,14.70
2024-02-29T17:43:05.109Z,13.25
2024-02-29T17:45:53.749Z,13.77
2024-02-29T17:48:40.623Z,13.23
2024-02-29T17:51:23.432Z,11.50
2024-02-29T17:54:08.856Z,13.35
2024-02-29T17:56:44.841Z,13.02
2024-02-29T17:59:17.716Z,13.25
2024-02-29T18:01:59.117Z,14.02
2024-02-29T18:04:41.925Z,12.90
2024-02-29T18:07:18.045Z,14.07
2024-02-29T18:09:58.324Z,13.23
2024-02-29T18:12:38.038Z,13.63
2024-02-29T18:15:15.246Z,14.88
2024-02-29T18:17:54.512Z,14.63
2024-02-29T18:20:33.200Z,14.27
2024-02-29T18:23:11.974Z,14.05
2024-02-29T18:25:51.234Z,14.00
2024-02-29T18:28:27.594Z,14.55
2024-02-29T18:31:11.135Z,14.85
2024-02-29T18:33:50.716Z,15.63
2024-02-29T18:36:37.169Z,15.20
2024-02-29T18:39:17.839Z,16.08
2024-02-29T18:41:48.997Z,15.35
2024-02-29T18:44:24.184Z,15.75
2024-02-29T18:47:09.116Z,15.82
2024-02-29T18:49:54.354Z,14.75
2024-02-29T18:52:48.341Z,17.98
2024-02-29T18:55:30.993Z,14.25
2024-02-29T18:58:14.866Z,14.85
2024-02-29T19:00:58.971Z,15.25
2024-02-29T19:03:35.202Z,13.93
2024-02-29T19:06:14.067Z,14.63
2024-02-29T19:08:58.321Z,14.75
2024-02-29T19:11:38.825Z,13.88
2024-02-29T19:14:20.545Z,13.82
2024-02-29T19:19:50.249Z,15.23
2024-02-29T19:22:28.800Z,15.80
2024-02-29T19:25:12.126Z,15.02
2024-02-29T19:27:50.376Z,15.77
2024-02-29T19:30:32.100Z,15.88
2024-02-29T19:33:08.898Z,15.93
2024-02-29T19:35:56.235Z,16.30
2024-02-29T19:38:33.463Z,16.15
2024-02-29T19:41:20.857Z,17.63
2024-02-29T19:43:59.348Z,16.60
2024-02-29T19:46:38.208Z,17.50
2024-02-29T19:49:25.673Z,16.45
2024-02-29T19:52:10.741Z,17.17
2024-02-29T19:54:50.876Z,16.48
2024-02-29T19:57:31.311Z,17.67
2024-02-29T20:00:08.870Z,19.20
2024-02-29T20:03:11.609Z,17.35
2024-02-29T20:05:54.781Z,19.05
2024-02-29T20:08:34.500Z,20.95
2024-02-29T20:11:20.217Z,19.00
2024-02-29T20:14:15.215Z,18.20
2024-02-29T20:16:50.180Z,19.15
2024-02-29T20:19:31.002Z,18.20
2024-02-29T20:22:13.551Z,17.23
2024-02-29T20:24:57.446Z,18.70
2024-02-29T20:27:38.868Z,19.25
2024-02-29T20:30:30.803Z,19.80
2024-02-29T20:33:13.606Z,20.25
2024-02-29T20:35:55.721Z,20.25
2024-02-29T20:38:31.378Z,20.70
2024-02-29T20:41:13.653Z,19.63
2024-02-29T20:43:57.464Z,20.63
2024-02-29T20:46:45.232Z,19.40
2024-02-29T20:49:23.793Z,22.02
2024-02-29T20:52:08.738Z,21.15
2024-02-29T20:54:47.968Z,20.42
2024-02-29T20:57:30.843Z,20.88
2024-02-29T21:00:11.175Z,20.52
2024-02-29T21:02:56.194Z,19.88
2024-02-29T21:05:37.816Z,20.50
2024-02-29T21:11:03.578Z,21.10
2024-02-29T21:13:41.332Z,20.55
2024-02-29T21:16:16.759Z,21.05
2024-02-29T21:19:06.005Z,20.88
2024-02-29T21:21:46.462Z,19.95
2024-02-29T21:24:27.156Z,20.88
2024-02-29T21:27:26.006Z,20.63
2024-02-29T21:30:05.547Z,21.00
2024-02-29T21:32:46.644Z,19.08
2024-02-29T21:38:06.875Z,19.17
2024-02-29T21:40:45.217Z,20.13
2024-02-29T21:43:24.655Z,20.40
2024-02-29T21:46:02.560Z,19.52
2024-02-29T21:48:44.021Z,19.17
2024-02-29T21:51:31.752Z,20.70
2024-02-29T21:54:27.466Z,19.90
2024-02-29T21:57:06.748Z,19.00
2024-02-29T21:59:39.136Z,18.50
2024-02-29T22:02:25.475Z,18.73
2024-02-29T22:05:06.921Z,19.73
2024-02-29T22:07:59.413Z,20.23
2024-02-29T22:13:21.701Z,19.33
2024-02-29T22:16:03.901Z,19.60
2024-02-29T22:18:47.780Z,19.15
2024-02-29T22:21:33.755Z,20.58
2024-02-29T22:24:18.226Z,19.70
2024-02-29T22:26:54.263Z,20.25
2024-02-29T22:29:44.364Z,19.55
2024-02-29T22:32:40.303Z,19.20
2024-02-29T22:35:30.699Z,20.33
2024-02-29T22:38:16.798Z,21.03
2024-02-29T22:41:13.109Z,20.60
2024-02-29T22:43:54.644Z,22.20
2024-02-29T22:46:34.119Z,23.08
2024-02-29T22:49:22.510Z,21.05
2024-02-29T22:52:01.950Z,21.80
2024-02-29T22:54:43.101Z,22.52
2024-02-29T22:59:59.594Z,23.30
2024-02-29T23:02:44.841Z,23.60
2024-02-29T23:05:23.357Z,24.98
2024-02-29T23:08:00.681Z,24.60
2024-02-29T23:10:35.001Z,23.02
2024-02-29T23:13:16.699Z,25.45
2024-02-29T23:15:53.232Z,23.70
2024-02-29T23:18:34.564Z,25.02
2024-02-29T23:21:13.930Z,24.10
2024-02-29T23:23:54.217Z,23.83
2024-02-29T23:26:36.463Z,24.70
2024-02-29T23:29:15.107Z,24.83
2024-02-29T23:31:58.737Z,24.13
2024-02-29T23:34:49.856Z,24.25
2024-02-29T23:37:28.415Z,24.13
2024-02-29T23:40:06.484Z,23.45
2024-02-29T23:42:51.029Z,23.50
2024-02-29T23:45:41.884Z,22.42
2024-02-29T23:50:58.115Z,23.98
2024-02-29T23:53:38.699Z,25.08
2024-02-29T23:56:20.743Z,24.17
2024-02-29T23:58:56.801Z,23.48
